sensor_id;sensor_type;location;lat;lon;timestamp;temperature;humidity
69359;HTU21D;56520;49.066;8.660;2023-10-08T00:02:03;15.44;61.28
69359;HTU21D;56520;49.066;8.660;2023-10-08T00:04:28;15.51;61.01
69359;HTU21D;56520;49.066;8.660;2023-10-08T00:06:54;15.54;61.30
69359;HTU21D;56520;49.066;8.660;2023-10-08T00:09:20;15.54;61.62
69359;HTU21D;56520;49.066;8.660;2023-10-08T00:11:46;15.52;61.80
69359;HTU21D;56520;49.066;8.660;2023-10-08T00:14:18;15.49;61.79
69359;HTU21D;56520;49.066;8.660;2023-10-08T00:16:47;15.59;61.74
69359;HTU21D;56520;49.066;8.660;2023-10-08T00:19:15;15.85;60.51
69359;HTU21D;56520;49.066;8.660;2023-10-08T00:21:43;16.07;59.93
69359;HTU21D;56520;49.066;8.660;2023-10-08T00:24:10;16.24;58.70
69359;HTU21D;56520;49.066;8.660;2023-10-08T00:26:37;16.41;57.19
69359;HTU21D;56520;49.066;8.660;2023-10-08T00:29:07;16.56;57.44
69359;HTU21D;56520;49.066;8.660;2023-10-08T00:31:43;16.74;56.56
69359;HTU21D;56520;49.066;8.660;2023-10-08T00:34:13;16.73;56.53
69359;HTU21D;56520;49.066;8.660;2023-10-08T00:36:43;16.72;56.26
69359;HTU21D;56520;49.066;8.660;2023-10-08T00:39:10;16.76;55.55
69359;HTU21D;56520;49.066;8.660;2023-10-08T00:41:42;16.75;55.80
69359;HTU21D;56520;49.066;8.660;2023-10-08T00:44:09;16.76;55.45
69359;HTU21D;56520;49.066;8.660;2023-10-08T00:46:37;16.78;54.55
69359;HTU21D;56520;49.066;8.660;2023-10-08T00:49:23;16.82;54.78
69359;HTU21D;56520;49.066;8.660;2023-10-08T00:51:55;17.00;53.66
69359;HTU21D;56520;49.066;8.660;2023-10-08T00:54:33;17.04;53.45
69359;HTU21D;56520;49.066;8.660;2023-10-08T00:56:59;16.99;53.47
69359;HTU21D;56520;49.066;8.660;2023-10-08T00:59:32;16.99;53.52
69359;HTU21D;56520;49.066;8.660;2023-10-08T01:02:15;17.00;53.65
69359;HTU21D;56520;49.066;8.660;2023-10-08T01:04:45;16.94;53.55
69359;HTU21D;56520;49.066;8.660;2023-10-08T01:07:12;16.93;54.00
69359;HTU21D;56520;49.066;8.660;2023-10-08T01:09:44;16.99;52.71
69359;HTU21D;56520;49.066;8.660;2023-10-08T01:14:58;17.11;52.82
69359;HTU21D;56520;49.066;8.660;2023-10-08T01:17:32;17.08;53.26
69359;HTU21D;56520;49.066;8.660;2023-10-08T01:19:58;17.03;53.97
69359;HTU21D;56520;49.066;8.660;2023-10-08T01:22:45;17.00;53.40
69359;HTU21D;56520;49.066;8.660;2023-10-08T01:25:11;17.04;53.17
69359;HTU21D;56520;49.066;8.660;2023-10-08T01:27:36;17.02;53.63
69359;HTU21D;56520;49.066;8.660;2023-10-08T01:30:03;16.98;53.90
69359;HTU21D;56520;49.066;8.660;2023-10-08T01:32:43;16.92;53.91
69359;HTU21D;56520;49.066;8.660;2023-10-08T01:35:09;16.89;53.59
69359;HTU21D;56520;49.066;8.660;2023-10-08T01:37:49;16.78;54.29
69359;HTU21D;56520;49.066;8.660;2023-10-08T01:40:16;16.66;54.62
69359;HTU21D;56520;49.066;8.660;2023-10-08T01:42:42;16.61;54.84
69359;HTU21D;56520;49.066;8.660;2023-10-08T01:45:08;16.52;55.10
69359;HTU21D;56520;49.066;8.660;2023-10-08T01:47:35;16.43;55.55
69359;HTU21D;56520;49.066;8.660;2023-10-08T01:50:01;16.29;55.97
69359;HTU21D;56520;49.066;8.660;2023-10-08T01:52:31;16.14;56.40
69359;HTU21D;56520;49.066;8.660;2023-10-08T01:54:57;16.00;56.78
69359;HTU21D;56520;49.066;8.660;2023-10-08T01:57:23;15.82;57.39
69359;HTU21D;56520;49.066;8.660;2023-10-08T01:59:49;15.66;58.00
69359;HTU21D;56520;49.066;8.660;2023-10-08T02:02:14;15.55;58.52
69359;HTU21D;56520;49.066;8.660;2023-10-08T02:04:42;15.49;58.62
69359;HTU21D;56520;49.066;8.660;2023-10-08T02:07:09;15.49;58.48
69359;HTU21D;56520;49.066;8.660;2023-10-08T02:09:40;15.51;58.58
69359;HTU21D;56520;49.066;8.660;2023-10-08T02:12:06;15.46;59.04
69359;HTU21D;56520;49.066;8.660;2023-10-08T02:14:31;15.42;59.22
69359;HTU21D;56520;49.066;8.660;2023-10-08T02:17:01;15.36;59.16
69359;HTU21D;56520;49.066;8.660;2023-10-08T02:19:31;15.28;59.43
69359;HTU21D;56520;49.066;8.660;2023-10-08T02:21:58;15.21;59.63
69359;HTU21D;56520;49.066;8.660;2023-10-08T02:24:24;15.14;59.59
69359;HTU21D;56520;49.066;8.660;2023-10-08T02:26:53;15.10;59.64
69359;HTU21D;56520;49.066;8.660;2023-10-08T02:29:20;15.04;59.64
69359;HTU21D;56520;49.066;8.660;2023-10-08T02:31:47;14.96;59.93
69359;HTU21D;56520;49.066;8.660;2023-10-08T02:34:13;14.92;59.88
69359;HTU21D;56520;49.066;8.660;2023-10-08T02:36:39;14.89;60.08
69359;HTU21D;56520;49.066;8.660;2023-10-08T02:39:06;14.93;59.98
69359;HTU21D;56520;49.066;8.660;2023-10-08T02:41:49;15.00;59.67
69359;HTU21D;56520;49.066;8.660;2023-10-08T02:44:16;15.13;59.34
69359;HTU21D;56520;49.066;8.660;2023-10-08T02:46:45;15.22;59.09
69359;HTU21D;56520;49.066;8.660;2023-10-08T02:49:23;15.22;59.12
69359;HTU21D;56520;49.066;8.660;2023-10-08T02:51:53;15.16;59.24
69359;HTU21D;56520;49.066;8.660;2023-10-08T02:54:20;15.13;59.35
69359;HTU21D;56520;49.066;8.660;2023-10-08T02:56:52;15.15;59.25
69359;HTU21D;56520;49.066;8.660;2023-10-08T02:59:20;15.22;59.12
69359;HTU21D;56520;49.066;8.660;2023-10-08T03:01:50;15.22;59.25
69359;HTU21D;56520;49.066;8.660;2023-10-08T03:04:21;15.18;59.43
69359;HTU21D;56520;49.066;8.660;2023-10-08T03:06:48;15.16;59.44
69359;HTU21D;56520;49.066;8.660;2023-10-08T03:09:16;15.18;59.31
69359;HTU21D;56520;49.066;8.660;2023-10-08T03:11:47;15.21;59.21
69359;HTU21D;56520;49.066;8.660;2023-10-08T03:14:13;15.13;59.45
69359;HTU21D;56520;49.066;8.660;2023-10-08T03:16:48;15.03;59.70
69359;HTU21D;56520;49.066;8.660;2023-10-08T03:19:13;14.96;59.81
69359;HTU21D;56520;49.066;8.660;2023-10-08T03:21:40;14.88;60.02
69359;HTU21D;56520;49.066;8.660;2023-10-08T03:24:05;14.78;60.33
69359;HTU21D;56520;49.066;8.660;2023-10-08T03:27:00;14.65;60.70
69359;HTU21D;56520;49.066;8.660;2023-10-08T03:29:52;14.55;61.15
69359;HTU21D;56520;49.066;8.660;2023-10-08T03:32:19;14.50;61.17
69359;HTU21D;56520;49.066;8.660;2023-10-08T03:34:52;14.47;61.34
69359;HTU21D;56520;49.066;8.660;2023-10-08T03:37:22;14.42;61.44
69359;HTU21D;56520;49.066;8.660;2023-10-08T03:39:55;14.39;61.41
69359;HTU21D;56520;49.066;8.660;2023-10-08T03:42:46;14.35;61.50
69359;HTU21D;56520;49.066;8.660;2023-10-08T03:45:14;14.27;61.43
69359;HTU21D;56520;49.066;8.660;2023-10-08T03:47:47;14.21;61.47
69359;HTU21D;56520;49.066;8.660;2023-10-08T03:50:27;14.14;61.69
69359;HTU21D;56520;49.066;8.660;2023-10-08T03:52:58;14.05;61.99
69359;HTU21D;56520;49.066;8.660;2023-10-08T03:55:23;13.98;62.30
69359;HTU21D;56520;49.066;8.660;2023-10-08T03:57:52;13.95;62.18
69359;HTU21D;56520;49.066;8.660;2023-10-08T04:00:24;13.91;62.09
69359;HTU21D;56520;49.066;8.660;2023-10-08T04:02:58;13.90;61.99
69359;HTU21D;56520;49.066;8.660;2023-10-08T04:05:34;13.89;61.92
69359;HTU21D;56520;49.066;8.660;2023-10-08T04:08:09;13.85;61.99
69359;HTU21D;56520;49.066;8.660;2023-10-08T04:11:08;13.80;62.15
69359;HTU21D;56520;49.066;8.660;2023-10-08T04:13:38;13.78;62.33
69359;HTU21D;56520;49.066;8.660;2023-10-08T04:16:10;13.75;62.77
69359;HTU21D;56520;49.066;8.660;2023-10-08T04:18:35;13.69;62.53
69359;HTU21D;56520;49.066;8.660;2023-10-08T04:21:06;13.65;62.65
69359;HTU21D;56520;49.066;8.660;2023-10-08T04:23:39;13.61;62.81
69359;HTU21D;56520;49.066;8.660;2023-10-08T04:26:04;13.59;62.97
69359;HTU21D;56520;49.066;8.660;2023-10-08T04:28:32;13.58;63.02
69359;HTU21D;56520;49.066;8.660;2023-10-08T04:31:00;13.55;63.14
69359;HTU21D;56520;49.066;8.660;2023-10-08T04:33:27;13.59;63.21
69359;HTU21D;56520;49.066;8.660;2023-10-08T04:35:59;13.64;63.18
69359;HTU21D;56520;49.066;8.660;2023-10-08T04:38:27;13.70;63.08
69359;HTU21D;56520;49.066;8.660;2023-10-08T04:40:54;13.74;63.32
69359;HTU21D;56520;49.066;8.660;2023-10-08T04:43:24;13.80;63.31
69359;HTU21D;56520;49.066;8.660;2023-10-08T04:46:02;13.88;63.08
69359;HTU21D;56520;49.066;8.660;2023-10-08T04:48:42;13.92;62.89
69359;HTU21D;56520;49.066;8.660;2023-10-08T04:51:08;14.00;62.93
69359;HTU21D;56520;49.066;8.660;2023-10-08T04:53:38;14.10;62.95
69359;HTU21D;56520;49.066;8.660;2023-10-08T04:56:10;14.22;62.86
69359;HTU21D;56520;49.066;8.660;2023-10-08T04:58:46;14.37;62.19
69359;HTU21D;56520;49.066;8.660;2023-10-08T05:01:15;14.52;61.70
69359;HTU21D;56520;49.066;8.660;2023-10-08T05:04:03;14.64;61.09
69359;HTU21D;56520;49.066;8.660;2023-10-08T05:06:30;14.71;60.53
69359;HTU21D;56520;49.066;8.660;2023-10-08T05:09:05;14.74;60.66
69359;HTU21D;56520;49.066;8.660;2023-10-08T05:11:50;14.75;60.04
69359;HTU21D;56520;49.066;8.660;2023-10-08T05:14:20;14.75;59.71
69359;HTU21D;56520;49.066;8.660;2023-10-08T05:17:00;14.77;59.44
69359;HTU21D;56520;49.066;8.660;2023-10-08T05:19:29;14.80;59.26
69359;HTU21D;56520;49.066;8.660;2023-10-08T05:22:14;14.81;59.27
69359;HTU21D;56520;49.066;8.660;2023-10-08T05:24:53;14.86;58.90
69359;HTU21D;56520;49.066;8.660;2023-10-08T05:27:34;14.88;59.05
69359;HTU21D;56520;49.066;8.660;2023-10-08T05:30:25;14.87;58.84
69359;HTU21D;56520;49.066;8.660;2023-10-08T05:32:57;14.86;59.10
69359;HTU21D;56520;49.066;8.660;2023-10-08T05:35:47;14.84;59.17
69359;HTU21D;56520;49.066;8.660;2023-10-08T05:38:21;14.83;59.03
69359;HTU21D;56520;49.066;8.660;2023-10-08T05:41:07;14.83;59.36
69359;HTU21D;56520;49.066;8.660;2023-10-08T05:43:52;14.80;59.41
69359;HTU21D;56520;49.066;8.660;2023-10-08T05:46:37;14.74;59.73
69359;HTU21D;56520;49.066;8.660;2023-10-08T05:49:14;14.68;60.03
69359;HTU21D;56520;49.066;8.660;2023-10-08T05:51:41;14.64;60.18
69359;HTU21D;56520;49.066;8.660;2023-10-08T05:54:20;14.57;60.53
69359;HTU21D;56520;49.066;8.660;2023-10-08T05:56:59;14.55;60.84
69359;HTU21D;56520;49.066;8.660;2023-10-08T05:59:30;14.51;60.89
69359;HTU21D;56520;49.066;8.660;2023-10-08T06:02:05;14.51;61.09
69359;HTU21D;56520;49.066;8.660;2023-10-08T06:04:45;14.55;61.04
69359;HTU21D;56520;49.066;8.660;2023-10-08T06:07:28;14.59;60.83
69359;HTU21D;56520;49.066;8.660;2023-10-08T06:10:12;14.66;60.31
69359;HTU21D;56520;49.066;8.660;2023-10-08T06:18:28;14.79;60.00
69359;HTU21D;56520;49.066;8.660;2023-10-08T06:20:58;14.79;59.54
69359;HTU21D;56520;49.066;8.660;2023-10-08T06:23:25;14.81;59.86
69359;HTU21D;56520;49.066;8.660;2023-10-08T06:25:52;14.81;60.06
69359;HTU21D;56520;49.066;8.660;2023-10-08T06:28:26;14.77;60.35
69359;HTU21D;56520;49.066;8.660;2023-10-08T06:30:53;14.72;60.50
69359;HTU21D;56520;49.066;8.660;2023-10-08T06:33:19;14.71;60.64
69359;HTU21D;56520;49.066;8.660;2023-10-08T06:35:46;14.70;60.49
69359;HTU21D;56520;49.066;8.660;2023-10-08T06:38:29;14.71;60.21
69359;HTU21D;56520;49.066;8.660;2023-10-08T06:41:03;14.70;60.23
69359;HTU21D;56520;49.066;8.660;2023-10-08T06:43:38;14.68;60.57
69359;HTU21D;56520;49.066;8.660;2023-10-08T06:46:04;14.69;60.17
69359;HTU21D;56520;49.066;8.660;2023-10-08T06:48:32;14.69;60.47
69359;HTU21D;56520;49.066;8.660;2023-10-08T06:51:00;14.66;60.80
69359;HTU21D;56520;49.066;8.660;2023-10-08T06:53:33;14.64;61.02
69359;HTU21D;56520;49.066;8.660;2023-10-08T06:55:58;14.65;61.18
69359;HTU21D;56520;49.066;8.660;2023-10-08T06:58:29;14.66;62.20
69359;HTU21D;56520;49.066;8.660;2023-10-08T07:00:57;14.77;60.67
69359;HTU21D;56520;49.066;8.660;2023-10-08T07:03:24;14.94;59.45
69359;HTU21D;56520;49.066;8.660;2023-10-08T07:05:51;15.07;59.34
69359;HTU21D;56520;49.066;8.660;2023-10-08T07:08:22;15.15;59.12
69359;HTU21D;56520;49.066;8.660;2023-10-08T07:10:52;15.21;58.80
69359;HTU21D;56520;49.066;8.660;2023-10-08T07:13:19;15.26;58.66
69359;HTU21D;56520;49.066;8.660;2023-10-08T07:15:48;15.28;58.74
69359;HTU21D;56520;49.066;8.660;2023-10-08T07:18:14;15.29;59.01
69359;HTU21D;56520;49.066;8.660;2023-10-08T07:20:44;15.29;58.90
69359;HTU21D;56520;49.066;8.660;2023-10-08T07:23:11;15.27;59.09
69359;HTU21D;56520;49.066;8.660;2023-10-08T07:25:57;15.27;59.16
69359;HTU21D;56520;49.066;8.660;2023-10-08T07:28:42;15.24;59.02
69359;HTU21D;56520;49.066;8.660;2023-10-08T07:31:13;15.25;58.67
69359;HTU21D;56520;49.066;8.660;2023-10-08T07:33:41;15.23;58.64
69359;HTU21D;56520;49.066;8.660;2023-10-08T07:36:10;15.26;58.34
69359;HTU21D;56520;49.066;8.660;2023-10-08T07:38:44;15.25;58.25
69359;HTU21D;56520;49.066;8.660;2023-10-08T07:41:13;15.21;58.67
69359;HTU21D;56520;49.066;8.660;2023-10-08T07:43:43;15.18;59.07
69359;HTU21D;56520;49.066;8.660;2023-10-08T07:46:09;15.26;58.97
69359;HTU21D;56520;49.066;8.660;2023-10-08T07:48:35;15.31;59.16
69359;HTU21D;56520;49.066;8.660;2023-10-08T07:51:01;15.38;59.68
69359;HTU21D;56520;49.066;8.660;2023-10-08T07:53:27;15.53;59.44
69359;HTU21D;56520;49.066;8.660;2023-10-08T07:56:06;15.70;59.06
69359;HTU21D;56520;49.066;8.660;2023-10-08T07:58:36;15.81;58.82
69359;HTU21D;56520;49.066;8.660;2023-10-08T08:01:08;15.90;58.66
69359;HTU21D;56520;49.066;8.660;2023-10-08T08:03:39;16.02;57.96
69359;HTU21D;56520;49.066;8.660;2023-10-08T08:06:10;16.21;57.88
69359;HTU21D;56520;49.066;8.660;2023-10-08T08:08:37;16.49;57.22
69359;HTU21D;56520;49.066;8.660;2023-10-08T08:11:06;16.76;56.71
69359;HTU21D;56520;49.066;8.660;2023-10-08T08:13:38;16.92;56.70
69359;HTU21D;56520;49.066;8.660;2023-10-08T08:16:04;17.03;55.81
69359;HTU21D;56520;49.066;8.660;2023-10-08T08:18:48;17.11;54.92
69359;HTU21D;56520;49.066;8.660;2023-10-08T08:21:31;17.09;55.45
69359;HTU21D;56520;49.066;8.660;2023-10-08T08:23:57;17.10;55.05
69359;HTU21D;56520;49.066;8.660;2023-10-08T08:26:30;17.11;55.21
69359;HTU21D;56520;49.066;8.660;2023-10-08T08:29:02;17.16;55.62
69359;HTU21D;56520;49.066;8.660;2023-10-08T08:31:29;17.24;56.02
69359;HTU21D;56520;49.066;8.660;2023-10-08T08:33:58;17.25;56.16
69359;HTU21D;56520;49.066;8.660;2023-10-08T08:36:28;17.39;55.78
69359;HTU21D;56520;49.066;8.660;2023-10-08T08:38:54;17.46;55.18
69359;HTU21D;56520;49.066;8.660;2023-10-08T08:41:20;17.50;55.16
69359;HTU21D;56520;49.066;8.660;2023-10-08T08:43:51;17.55;55.43
69359;HTU21D;56520;49.066;8.660;2023-10-08T08:46:38;17.69;55.42
69359;HTU21D;56520;49.066;8.660;2023-10-08T08:49:07;17.90;55.19
69359;HTU21D;56520;49.066;8.660;2023-10-08T08:51:34;18.06;54.64
69359;HTU21D;56520;49.066;8.660;2023-10-08T08:54:04;18.23;54.31
69359;HTU21D;56520;49.066;8.660;2023-10-08T08:56:37;18.37;54.74
69359;HTU21D;56520;49.066;8.660;2023-10-08T08:59:05;18.57;54.80
69359;HTU21D;56520;49.066;8.660;2023-10-08T09:01:31;18.79;53.33
69359;HTU21D;56520;49.066;8.660;2023-10-08T09:04:01;18.92;52.92
69359;HTU21D;56520;49.066;8.660;2023-10-08T09:06:27;19.05;52.01
69359;HTU21D;56520;49.066;8.660;2023-10-08T09:08:53;19.02;52.28
69359;HTU21D;56520;49.066;8.660;2023-10-08T09:11:21;19.03;52.56
69359;HTU21D;56520;49.066;8.660;2023-10-08T09:13:47;18.96;53.08
69359;HTU21D;56520;49.066;8.660;2023-10-08T09:16:14;18.92;53.46
69359;HTU21D;56520;49.066;8.660;2023-10-08T09:18:58;18.89;53.98
69359;HTU21D;56520;49.066;8.660;2023-10-08T09:21:23;18.86;54.32
69359;HTU21D;56520;49.066;8.660;2023-10-08T09:23:50;18.82;54.60
69359;HTU21D;56520;49.066;8.660;2023-10-08T09:26:17;18.84;54.84
69359;HTU21D;56520;49.066;8.660;2023-10-08T09:28:47;18.92;54.84
69359;HTU21D;56520;49.066;8.660;2023-10-08T09:31:14;19.00;55.08
69359;HTU21D;56520;49.066;8.660;2023-10-08T09:33:40;19.10;54.98
69359;HTU21D;56520;49.066;8.660;2023-10-08T09:36:06;19.18;54.98
69359;HTU21D;56520;49.066;8.660;2023-10-08T09:38:36;19.14;55.07
69359;HTU21D;56520;49.066;8.660;2023-10-08T09:41:02;19.12;55.03
69359;HTU21D;56520;49.066;8.660;2023-10-08T09:43:29;19.09;55.14
69359;HTU21D;56520;49.066;8.660;2023-10-08T09:46:00;19.07;55.35
69359;HTU21D;56520;49.066;8.660;2023-10-08T09:48:31;19.15;55.47
69359;HTU21D;56520;49.066;8.660;2023-10-08T09:51:00;19.20;55.41
69359;HTU21D;56520;49.066;8.660;2023-10-08T09:53:38;19.23;55.26
69359;HTU21D;56520;49.066;8.660;2023-10-08T09:56:15;19.27;54.94
69359;HTU21D;56520;49.066;8.660;2023-10-08T09:58:44;19.32;54.03
69359;HTU21D;56520;49.066;8.660;2023-10-08T10:01:10;19.36;53.75
69359;HTU21D;56520;49.066;8.660;2023-10-08T10:03:36;19.46;54.28
69359;HTU21D;56520;49.066;8.660;2023-10-08T10:06:02;19.76;54.62
69359;HTU21D;56520;49.066;8.660;2023-10-08T10:08:27;20.29;53.49
69359;HTU21D;56520;49.066;8.660;2023-10-08T10:11:00;20.78;53.18
69359;HTU21D;56520;49.066;8.660;2023-10-08T10:13:38;21.13;51.75
69359;HTU21D;56520;49.066;8.660;2023-10-08T10:16:05;21.35;51.08
69359;HTU21D;56520;49.066;8.660;2023-10-08T10:18:33;21.64;50.96
69359;HTU21D;56520;49.066;8.660;2023-10-08T10:23:49;21.94;49.98
69359;HTU21D;56520;49.066;8.660;2023-10-08T10:26:28;21.78;50.60
69359;HTU21D;56520;49.066;8.660;2023-10-08T10:31:33;21.66;49.99
69359;HTU21D;56520;49.066;8.660;2023-10-08T10:34:08;21.73;50.62
69359;HTU21D;56520;49.066;8.660;2023-10-08T10:36:34;22.01;49.84
69359;HTU21D;56520;49.066;8.660;2023-10-08T10:39:00;22.25;48.77
69359;HTU21D;56520;49.066;8.660;2023-10-08T10:41:27;22.46;49.23
69359;HTU21D;56520;49.066;8.660;2023-10-08T10:43:53;22.71;49.54
69359;HTU21D;56520;49.066;8.660;2023-10-08T10:46:18;23.00;49.09
69359;HTU21D;56520;49.066;8.660;2023-10-08T10:48:55;23.29;48.84
69359;HTU21D;56520;49.066;8.660;2023-10-08T10:51:44;23.51;47.50
69359;HTU21D;56520;49.066;8.660;2023-10-08T10:54:11;23.61;46.57
69359;HTU21D;56520;49.066;8.660;2023-10-08T10:56:45;23.65;46.76
69359;HTU21D;56520;49.066;8.660;2023-10-08T10:59:13;23.62;47.34
69359;HTU21D;56520;49.066;8.660;2023-10-08T11:01:50;23.80;46.74
69359;HTU21D;56520;49.066;8.660;2023-10-08T11:04:20;23.99;45.06
69359;HTU21D;56520;49.066;8.660;2023-10-08T11:06:54;24.14;44.53
69359;HTU21D;56520;49.066;8.660;2023-10-08T11:09:24;24.23;44.02
69359;HTU21D;56520;49.066;8.660;2023-10-08T11:12:06;24.23;44.24
69359;HTU21D;56520;49.066;8.660;2023-10-08T11:14:39;24.17;44.40
69359;HTU21D;56520;49.066;8.660;2023-10-08T11:17:17;24.24;43.35
69359;HTU21D;56520;49.066;8.660;2023-10-08T11:19:43;24.20;44.42
69359;HTU21D;56520;49.066;8.660;2023-10-08T11:22:11;24.32;44.01
69359;HTU21D;56520;49.066;8.660;2023-10-08T11:24:42;24.46;44.16
69359;HTU21D;56520;49.066;8.660;2023-10-08T11:27:16;24.61;43.39
69359;HTU21D;56520;49.066;8.660;2023-10-08T11:29:46;24.79;43.01
69359;HTU21D;56520;49.066;8.660;2023-10-08T11:32:14;24.92;43.34
69359;HTU21D;56520;49.066;8.660;2023-10-08T11:34:45;25.09;41.78
69359;HTU21D;56520;49.066;8.660;2023-10-08T11:37:15;25.15;41.45
69359;HTU21D;56520;49.066;8.660;2023-10-08T11:39:46;25.23;42.16
69359;HTU21D;56520;49.066;8.660;2023-10-08T11:42:11;25.32;42.24
69359;HTU21D;56520;49.066;8.660;2023-10-08T11:44:55;25.34;41.87
69359;HTU21D;56520;49.066;8.660;2023-10-08T11:47:24;25.38;40.90
69359;HTU21D;56520;49.066;8.660;2023-10-08T11:49:56;25.38;41.77
69359;HTU21D;56520;49.066;8.660;2023-10-08T11:52:35;25.34;41.71
69359;HTU21D;56520;49.066;8.660;2023-10-08T11:55:07;25.33;41.86
69359;HTU21D;56520;49.066;8.660;2023-10-08T11:57:32;25.36;41.71
69359;HTU21D;56520;49.066;8.660;2023-10-08T12:00:01;25.39;41.82
69359;HTU21D;56520;49.066;8.660;2023-10-08T12:02:41;25.47;40.61
69359;HTU21D;56520;49.066;8.660;2023-10-08T12:05:09;25.43;41.83
69359;HTU21D;56520;49.066;8.660;2023-10-08T12:07:45;25.47;41.84
69359;HTU21D;56520;49.066;8.660;2023-10-08T12:10:10;25.57;40.24
69359;HTU21D;56520;49.066;8.660;2023-10-08T12:12:36;25.60;39.28
69359;HTU21D;56520;49.066;8.660;2023-10-08T12:15:02;25.40;40.03
69359;HTU21D;56520;49.066;8.660;2023-10-08T12:17:29;25.31;41.10
69359;HTU21D;56520;49.066;8.660;2023-10-08T12:20:05;25.37;40.83
69359;HTU21D;56520;49.066;8.660;2023-10-08T12:22:51;25.40;41.00
69359;HTU21D;56520;49.066;8.660;2023-10-08T12:25:16;25.47;40.55
69359;HTU21D;56520;49.066;8.660;2023-10-08T12:27:41;25.51;40.04
69359;HTU21D;56520;49.066;8.660;2023-10-08T12:30:08;25.50;40.12
69359;HTU21D;56520;49.066;8.660;2023-10-08T12:32:36;25.52;40.26
69359;HTU21D;56520;49.066;8.660;2023-10-08T12:35:05;25.67;39.43
69359;HTU21D;56520;49.066;8.660;2023-10-08T12:37:40;25.78;39.14
69359;HTU21D;56520;49.066;8.660;2023-10-08T12:40:07;25.83;39.68
69359;HTU21D;56520;49.066;8.660;2023-10-08T12:42:53;25.96;39.40
69359;HTU21D;56520;49.066;8.660;2023-10-08T12:45:20;26.05;38.97
69359;HTU21D;56520;49.066;8.660;2023-10-08T12:47:51;26.05;39.26
69359;HTU21D;56520;49.066;8.660;2023-10-08T12:50:18;26.16;38.81
69359;HTU21D;56520;49.066;8.660;2023-10-08T12:53:04;26.09;38.92
69359;HTU21D;56520;49.066;8.660;2023-10-08T12:55:30;26.11;39.48
69359;HTU21D;56520;49.066;8.660;2023-10-08T12:57:56;26.24;38.82
69359;HTU21D;56520;49.066;8.660;2023-10-08T13:00:31;26.28;38.06
69359;HTU21D;56520;49.066;8.660;2023-10-08T13:02:57;26.25;38.82
69359;HTU21D;56520;49.066;8.660;2023-10-08T13:05:23;26.28;38.74
69359;HTU21D;56520;49.066;8.660;2023-10-08T13:07:56;26.13;39.36
69359;HTU21D;56520;49.066;8.660;2023-10-08T13:10:23;26.05;39.88
69359;HTU21D;56520;49.066;8.660;2023-10-08T13:12:49;26.04;39.78
69359;HTU21D;56520;49.066;8.660;2023-10-08T13:15:14;26.03;40.49
69359;HTU21D;56520;49.066;8.660;2023-10-08T13:17:40;26.11;40.22
69359;HTU21D;56520;49.066;8.660;2023-10-08T13:20:17;26.18;39.65
69359;HTU21D;56520;49.066;8.660;2023-10-08T13:22:43;26.16;40.26
69359;HTU21D;56520;49.066;8.660;2023-10-08T13:25:12;26.25;40.38
69359;HTU21D;56520;49.066;8.660;2023-10-08T13:27:41;26.28;40.76
69359;HTU21D;56520;49.066;8.660;2023-10-08T13:30:07;26.27;40.52
69359;HTU21D;56520;49.066;8.660;2023-10-08T13:32:35;26.19;40.94
69359;HTU21D;56520;49.066;8.660;2023-10-08T13:35:05;26.19;40.80
69359;HTU21D;56520;49.066;8.660;2023-10-08T13:37:35;26.13;41.00
69359;HTU21D;56520;49.066;8.660;2023-10-08T13:40:01;26.10;40.59
69359;HTU21D;56520;49.066;8.660;2023-10-08T13:42:27;26.01;40.94
69359;HTU21D;56520;49.066;8.660;2023-10-08T13:44:55;25.99;41.44
69359;HTU21D;56520;49.066;8.660;2023-10-08T13:47:25;25.97;41.47
69359;HTU21D;56520;49.066;8.660;2023-10-08T13:49:54;25.98;41.84
69359;HTU21D;56520;49.066;8.660;2023-10-08T13:52:20;25.98;41.83
69359;HTU21D;56520;49.066;8.660;2023-10-08T13:54:46;25.94;41.62
69359;HTU21D;56520;49.066;8.660;2023-10-08T13:57:19;25.94;42.05
69359;HTU21D;56520;49.066;8.660;2023-10-08T13:59:48;25.99;41.73
69359;HTU21D;56520;49.066;8.660;2023-10-08T14:02:14;25.95;41.36
69359;HTU21D;56520;49.066;8.660;2023-10-08T14:04:41;25.91;41.72
69359;HTU21D;56520;49.066;8.660;2023-10-08T14:07:12;25.87;42.48
69359;HTU21D;56520;49.066;8.660;2023-10-08T14:09:44;25.90;42.64
69359;HTU21D;56520;49.066;8.660;2023-10-08T14:12:14;25.86;42.36
69359;HTU21D;56520;49.066;8.660;2023-10-08T14:14:40;25.84;42.48
69359;HTU21D;56520;49.066;8.660;2023-10-08T14:17:09;25.88;42.37
69359;HTU21D;56520;49.066;8.660;2023-10-08T14:19:40;25.87;42.49
69359;HTU21D;56520;49.066;8.660;2023-10-08T14:22:14;25.84;42.52
69359;HTU21D;56520;49.066;8.660;2023-10-08T14:24:40;25.88;42.92
69359;HTU21D;56520;49.066;8.660;2023-10-08T14:27:06;25.87;43.20
69359;HTU21D;56520;49.066;8.660;2023-10-08T14:29:38;25.79;43.07
69359;HTU21D;56520;49.066;8.660;2023-10-08T14:32:09;25.76;42.98
69359;HTU21D;56520;49.066;8.660;2023-10-08T14:34:35;25.73;43.33
69359;HTU21D;56520;49.066;8.660;2023-10-08T14:37:19;25.71;43.26
69359;HTU21D;56520;49.066;8.660;2023-10-08T14:40:04;25.72;42.42
69359;HTU21D;56520;49.066;8.660;2023-10-08T14:42:48;25.61;42.43
69359;HTU21D;56520;49.066;8.660;2023-10-08T14:45:34;25.53;43.06
69359;HTU21D;56520;49.066;8.660;2023-10-08T14:48:04;25.42;43.19
69359;HTU21D;56520;49.066;8.660;2023-10-08T14:50:36;25.35;43.51
69359;HTU21D;56520;49.066;8.660;2023-10-08T14:53:04;25.36;43.84
69359;HTU21D;56520;49.066;8.660;2023-10-08T14:55:30;25.33;43.88
69359;HTU21D;56520;49.066;8.660;2023-10-08T14:57:56;25.30;44.01
69359;HTU21D;56520;49.066;8.660;2023-10-08T15:00:22;25.23;44.61
69359;HTU21D;56520;49.066;8.660;2023-10-08T15:02:54;25.20;44.38
69359;HTU21D;56520;49.066;8.660;2023-10-08T15:05:21;25.20;44.36
69359;HTU21D;56520;49.066;8.660;2023-10-08T15:07:50;25.22;44.05
69359;HTU21D;56520;49.066;8.660;2023-10-08T15:10:19;25.22;43.96
69359;HTU21D;56520;49.066;8.660;2023-10-08T15:12:46;25.22;43.90
69359;HTU21D;56520;49.066;8.660;2023-10-08T15:15:12;25.24;43.77
69359;HTU21D;56520;49.066;8.660;2023-10-08T15:17:45;25.22;43.91
69359;HTU21D;56520;49.066;8.660;2023-10-08T15:20:12;25.22;44.03
69359;HTU21D;56520;49.066;8.660;2023-10-08T15:22:47;25.21;44.28
69359;HTU21D;56520;49.066;8.660;2023-10-08T15:25:14;25.17;44.36
69359;HTU21D;56520;49.066;8.660;2023-10-08T15:27:42;25.06;44.30
69359;HTU21D;56520;49.066;8.660;2023-10-08T15:30:11;24.95;44.34
69359;HTU21D;56520;49.066;8.660;2023-10-08T15:32:41;24.88;44.88
69359;HTU21D;56520;49.066;8.660;2023-10-08T15:35:09;24.80;44.90
69359;HTU21D;56520;49.066;8.660;2023-10-08T15:37:38;24.74;44.63
69359;HTU21D;56520;49.066;8.660;2023-10-08T15:40:08;24.64;45.00
69359;HTU21D;56520;49.066;8.660;2023-10-08T15:42:42;24.53;45.32
69359;HTU21D;56520;49.066;8.660;2023-10-08T15:45:09;24.45;45.57
69359;HTU21D;56520;49.066;8.660;2023-10-08T15:47:38;24.36;45.86
69359;HTU21D;56520;49.066;8.660;2023-10-08T15:50:03;24.30;45.91
69359;HTU21D;56520;49.066;8.660;2023-10-08T15:52:30;24.21;46.25